sensor_id;sensor_type;location;lat;lon;timestamp;P1;durP1;ratioP1;P2;durP2;ratioP2
29196;SDS011;62796;42.654;23.316;2022-12-31T00:01:29;62.97;;;35.67;;
29196;SDS011;62796;42.654;23.316;2022-12-31T00:03:55;66.72;;;35.00;;
29196;SDS011;62796;42.654;23.316;2022-12-31T00:06:23;60.92;;;33.10;;
29196;SDS011;62796;42.654;23.316;2022-12-31T00:08:54;62.33;;;33.42;;
29196;SDS011;62796;42.654;23.316;2022-12-31T00:11:21;56.40;;;32.33;;
29196;SDS011;62796;42.654;23.316;2022-12-31T00:13:47;82.68;;;42.83;;
29196;SDS011;62796;42.654;23.316;2022-12-31T00:16:14;69.15;;;39.53;;
29196;SDS011;62796;42.654;23.316;2022-12-31T00:18:43;63.85;;;35.20;;
29196;SDS011;62796;42.654;23.316;2022-12-31T00:21:10;66.25;;;34.60;;
29196;SDS011;62796;42.654;23.316;2022-12-31T00:23:36;67.13;;;34.13;;
29196;SDS011;62796;42.654;23.316;2022-12-31T00:26:06;60.00;;;33.05;;
29196;SDS011;62796;42.654;23.316;2022-12-31T00:28:36;60.35;;;33.67;;
29196;SDS011;62796;42.654;23.316;2022-12-31T00:33:32;63.95;;;33.45;;
29196;SDS011;62796;42.654;23.316;2022-12-31T00:36:08;64.97;;;33.85;;
29196;SDS011;62796;42.654;23.316;2022-12-31T00:38:35;64.07;;;33.20;;
29196;SDS011;62796;42.654;23.316;2022-12-31T00:41:02;66.53;;;35.88;;
29196;SDS011;62796;42.654;23.316;2022-12-31T00:43:28;68.15;;;35.40;;
29196;SDS011;62796;42.654;23.316;2022-12-31T00:45:54;75.53;;;36.50;;
29196;SDS011;62796;42.654;23.316;2022-12-31T00:48:19;68.10;;;36.03;;
29196;SDS011;62796;42.654;23.316;2022-12-31T00:50:45;64.28;;;34.10;;
29196;SDS011;62796;42.654;23.316;2022-12-31T00:53:10;60.97;;;32.80;;
29196;SDS011;62796;42.654;23.316;2022-12-31T00:55:35;61.72;;;32.15;;
29196;SDS011;62796;42.654;23.316;2022-12-31T00:58:01;56.20;;;32.35;;
29196;SDS011;62796;42.654;23.316;2022-12-31T01:00:26;57.97;;;32.13;;
29196;SDS011;62796;42.654;23.316;2022-12-31T01:02:52;55.42;;;31.73;;
29196;SDS011;62796;42.654;23.316;2022-12-31T01:05:17;60.63;;;32.38;;
29196;SDS011;62796;42.654;23.316;2022-12-31T01:07:42;60.85;;;33.60;;
29196;SDS011;62796;42.654;23.316;2022-12-31T01:10:08;60.75;;;33.80;;
29196;SDS011;62796;42.654;23.316;2022-12-31T01:12:34;56.78;;;31.23;;
29196;SDS011;62796;42.654;23.316;2022-12-31T01:14:59;59.40;;;32.53;;
29196;SDS011;62796;42.654;23.316;2022-12-31T01:17:25;56.63;;;30.48;;
29196;SDS011;62796;42.654;23.316;2022-12-31T01:19:50;52.58;;;29.67;;
29196;SDS011;62796;42.654;23.316;2022-12-31T01:22:16;52.25;;;30.75;;
29196;SDS011;62796;42.654;23.316;2022-12-31T01:24:41;51.22;;;31.08;;
29196;SDS011;62796;42.654;23.316;2022-12-31T01:27:06;59.00;;;31.23;;
29196;SDS011;62796;42.654;23.316;2022-12-31T01:29:32;61.85;;;34.33;;
29196;SDS011;62796;42.654;23.316;2022-12-31T01:31:57;61.90;;;34.10;;
29196;SDS011;62796;42.654;23.316;2022-12-31T01:34:23;62.78;;;34.47;;
29196;SDS011;62796;42.654;23.316;2022-12-31T01:36:48;64.72;;;36.05;;
29196;SDS011;62796;42.654;23.316;2022-12-31T01:39:13;69.20;;;38.03;;
29196;SDS011;62796;42.654;23.316;2022-12-31T01:41:44;62.97;;;35.20;;
29196;SDS011;62796;42.654;23.316;2022-12-31T01:46:36;62.65;;;33.97;;
29196;SDS011;62796;42.654;23.316;2022-12-31T01:49:04;60.30;;;34.13;;
29196;SDS011;62796;42.654;23.316;2022-12-31T01:51:34;64.53;;;35.33;;
29196;SDS011;62796;42.654;23.316;2022-12-31T01:54:02;61.40;;;32.95;;
29196;SDS011;62796;42.654;23.316;2022-12-31T01:56:31;53.45;;;32.65;;
29196;SDS011;62796;42.654;23.316;2022-12-31T01:58:57;60.97;;;34.15;;
29196;SDS011;62796;42.654;23.316;2022-12-31T02:01:25;58.75;;;31.65;;
29196;SDS011;62796;42.654;23.316;2022-12-31T02:03:55;59.47;;;33.40;;
29196;SDS011;62796;42.654;23.316;2022-12-31T02:06:22;62.80;;;34.83;;
29196;SDS011;62796;42.654;23.316;2022-12-31T02:08:52;51.65;;;32.55;;
29196;SDS011;62796;42.654;23.316;2022-12-31T02:11:38;54.78;;;31.95;;
29196;SDS011;62796;42.654;23.316;2022-12-31T02:14:05;59.13;;;32.65;;
29196;SDS011;62796;42.654;23.316;2022-12-31T02:27:44;63.58;;;31.67;;
29196;SDS011;62796;42.654;23.316;2022-12-31T02:30:18;61.42;;;33.88;;
29196;SDS011;62796;42.654;23.316;2022-12-31T02:38:23;55.30;;;31.20;;
29196;SDS011;62796;42.654;23.316;2022-12-31T02:40:56;57.83;;;31.05;;
29196;SDS011;62796;42.654;23.316;2022-12-31T02:43:23;58.33;;;30.48;;
29196;SDS011;62796;42.654;23.316;2022-12-31T02:48:28;49.95;;;28.73;;
29196;SDS011;62796;42.654;23.316;2022-12-31T02:53:51;53.97;;;29.40;;
29196;SDS011;62796;42.654;23.316;2022-12-31T03:01:43;51.67;;;27.52;;
29196;SDS011;62796;42.654;23.316;2022-12-31T03:04:30;48.95;;;26.98;;
29196;SDS011;62796;42.654;23.316;2022-12-31T03:07:04;56.25;;;28.80;;
29196;SDS011;62796;42.654;23.316;2022-12-31T03:09:32;55.28;;;27.05;;
29196;SDS011;62796;42.654;23.316;2022-12-31T03:11:58;46.03;;;24.02;;
29196;SDS011;62796;42.654;23.316;2022-12-31T03:14:44;38.17;;;23.35;;
29196;SDS011;62796;42.654;23.316;2022-12-31T03:17:09;42.88;;;24.48;;
29196;SDS011;62796;42.654;23.316;2022-12-31T03:19:35;39.55;;;21.42;;
29196;SDS011;62796;42.654;23.316;2022-12-31T03:22:19;32.22;;;19.48;;
29196;SDS011;62796;42.654;23.316;2022-12-31T03:27:38;36.42;;;19.33;;
29196;SDS011;62796;42.654;23.316;2022-12-31T03:30:04;35.33;;;20.75;;
29196;SDS011;62796;42.654;23.316;2022-12-31T03:32:30;33.70;;;20.00;;
29196;SDS011;62796;42.654;23.316;2022-12-31T03:34:55;34.20;;;20.05;;
29196;SDS011;62796;42.654;23.316;2022-12-31T03:37:21;37.00;;;22.02;;
29196;SDS011;62796;42.654;23.316;2022-12-31T03:39:46;37.80;;;21.02;;
29196;SDS011;62796;42.654;23.316;2022-12-31T03:42:11;40.65;;;22.42;;
29196;SDS011;62796;42.654;23.316;2022-12-31T03:44:37;36.92;;;20.73;;
29196;SDS011;62796;42.654;23.316;2022-12-31T03:47:02;34.97;;;21.80;;
29196;SDS011;62796;42.654;23.316;2022-12-31T03:49:28;40.95;;;22.13;;
29196;SDS011;62796;42.654;23.316;2022-12-31T03:51:53;43.70;;;23.15;;
29196;SDS011;62796;42.654;23.316;2022-12-31T03:54:18;38.63;;;21.92;;
29196;SDS011;62796;42.654;23.316;2022-12-31T03:56:44;36.25;;;20.67;;
29196;SDS011;62796;42.654;23.316;2022-12-31T03:59:09;42.60;;;22.35;;
29196;SDS011;62796;42.654;23.316;2022-12-31T04:01:35;40.70;;;22.20;;
29196;SDS011;62796;42.654;23.316;2022-12-31T04:04:00;47.65;;;27.23;;
29196;SDS011;62796;42.654;23.316;2022-12-31T04:06:25;43.90;;;24.30;;
29196;SDS011;62796;42.654;23.316;2022-12-31T04:08:51;46.33;;;24.98;;
29196;SDS011;62796;42.654;23.316;2022-12-31T04:11:16;47.35;;;26.08;;
29196;SDS011;62796;42.654;23.316;2022-12-31T04:13:41;48.55;;;27.38;;
29196;SDS011;62796;42.654;23.316;2022-12-31T04:16:07;46.47;;;25.70;;
29196;SDS011;62796;42.654;23.316;2022-12-31T04:18:32;53.30;;;26.48;;
29196;SDS011;62796;42.654;23.316;2022-12-31T04:21:01;40.58;;;25.80;;
29196;SDS011;62796;42.654;23.316;2022-12-31T04:23:27;43.15;;;25.25;;
29196;SDS011;62796;42.654;23.316;2022-12-31T04:25:52;54.00;;;26.40;;
29196;SDS011;62796;42.654;23.316;2022-12-31T04:28:18;43.30;;;24.30;;
29196;SDS011;62796;42.654;23.316;2022-12-31T04:30:43;42.78;;;26.48;;
29196;SDS011;62796;42.654;23.316;2022-12-31T04:33:08;43.00;;;24.33;;
29196;SDS011;62796;42.654;23.316;2022-12-31T04:35:34;41.80;;;23.42;;
29196;SDS011;62796;42.654;23.316;2022-12-31T04:37:59;33.72;;;21.42;;
29196;SDS011;62796;42.654;23.316;2022-12-31T04:40:25;31.85;;;18.27;;
29196;SDS011;62796;42.654;23.316;2022-12-31T04:42:50;38.03;;;19.35;;
29196;SDS011;62796;42.654;23.316;2022-12-31T04:45:15;38.63;;;19.80;;
29196;SDS011;62796;42.654;23.316;2022-12-31T04:47:41;38.38;;;21.98;;
29196;SDS011;62796;42.654;23.316;2022-12-31T04:50:06;45.22;;;25.45;;
29196;SDS011;62796;42.654;23.316;2022-12-31T04:52:32;44.67;;;26.80;;
29196;SDS011;62796;42.654;23.316;2022-12-31T04:54:58;44.78;;;24.90;;
29196;SDS011;62796;42.654;23.316;2022-12-31T04:57:23;45.38;;;26.08;;
29196;SDS011;62796;42.654;23.316;2022-12-31T04:59:48;46.80;;;25.13;;
29196;SDS011;62796;42.654;23.316;2022-12-31T05:02:14;46.28;;;24.17;;
29196;SDS011;62796;42.654;23.316;2022-12-31T05:04:39;38.20;;;22.80;;
29196;SDS011;62796;42.654;23.316;2022-12-31T05:07:04;35.03;;;21.38;;
29196;SDS011;62796;42.654;23.316;2022-12-31T05:09:30;45.15;;;22.50;;
29196;SDS011;62796;42.654;23.316;2022-12-31T05:11:55;42.95;;;23.27;;
29196;SDS011;62796;42.654;23.316;2022-12-31T05:14:21;36.13;;;21.98;;
29196;SDS011;62796;42.654;23.316;2022-12-31T05:16:46;36.65;;;21.77;;
29196;SDS011;62796;42.654;23.316;2022-12-31T05:19:11;40.58;;;21.77;;
29196;SDS011;62796;42.654;23.316;2022-12-31T05:21:37;44.63;;;25.75;;
29196;SDS011;62796;42.654;23.316;2022-12-31T05:24:02;49.78;;;27.98;;
29196;SDS011;62796;42.654;23.316;2022-12-31T05:26:28;42.85;;;24.50;;
29196;SDS011;62796;42.654;23.316;2022-12-31T05:28:53;41.83;;;23.65;;
29196;SDS011;62796;42.654;23.316;2022-12-31T05:31:20;42.08;;;22.55;;
29196;SDS011;62796;42.654;23.316;2022-12-31T05:33:46;33.30;;;18.75;;
29196;SDS011;62796;42.654;23.316;2022-12-31T05:36:11;33.67;;;19.20;;
29196;SDS011;62796;42.654;23.316;2022-12-31T05:38:38;41.95;;;24.48;;
29196;SDS011;62796;42.654;23.316;2022-12-31T05:41:04;39.17;;;23.33;;
29196;SDS011;62796;42.654;23.316;2022-12-31T05:43:31;38.88;;;23.67;;
29196;SDS011;62796;42.654;23.316;2022-12-31T05:46:00;38.30;;;22.73;;
29196;SDS011;62796;42.654;23.316;2022-12-31T05:48:27;35.40;;;20.45;;
29196;SDS011;62796;42.654;23.316;2022-12-31T05:50:52;39.55;;;20.63;;
29196;SDS011;62796;42.654;23.316;2022-12-31T05:53:18;34.35;;;20.38;;
29196;SDS011;62796;42.654;23.316;2022-12-31T05:55:44;36.97;;;21.98;;
29196;SDS011;62796;42.654;23.316;2022-12-31T05:58:11;39.72;;;22.15;;
29196;SDS011;62796;42.654;23.316;2022-12-31T06:00:36;41.88;;;22.65;;
29196;SDS011;62796;42.654;23.316;2022-12-31T06:03:02;37.50;;;21.00;;
29196;SDS011;62796;42.654;23.316;2022-12-31T06:05:27;32.17;;;19.20;;
29196;SDS011;62796;42.654;23.316;2022-12-31T06:07:52;34.13;;;18.35;;
29196;SDS011;62796;42.654;23.316;2022-12-31T06:10:18;34.95;;;19.00;;
29196;SDS011;62796;42.654;23.316;2022-12-31T06:12:43;34.92;;;21.02;;
29196;SDS011;62796;42.654;23.316;2022-12-31T06:15:08;41.00;;;24.13;;
29196;SDS011;62796;42.654;23.316;2022-12-31T06:17:34;34.38;;;21.38;;
29196;SDS011;62796;42.654;23.316;2022-12-31T06:19:59;38.15;;;20.25;;
29196;SDS011;62796;42.654;23.316;2022-12-31T06:22:25;38.63;;;19.33;;
29196;SDS011;62796;42.654;23.316;2022-12-31T06:24:50;38.03;;;20.33;;
29196;SDS011;62796;42.654;23.316;2022-12-31T06:27:16;45.22;;;21.73;;
29196;SDS011;62796;42.654;23.316;2022-12-31T06:29:41;39.90;;;21.73;;
29196;SDS011;62796;42.654;23.316;2022-12-31T06:32:06;43.20;;;22.10;;
29196;SDS011;62796;42.654;23.316;2022-12-31T06:34:32;38.85;;;22.25;;
29196;SDS011;62796;42.654;23.316;2022-12-31T06:36:57;41.63;;;22.45;;
29196;SDS011;62796;42.654;23.316;2022-12-31T06:39:23;47.47;;;21.58;;
29196;SDS011;62796;42.654;23.316;2022-12-31T06:41:49;50.67;;;24.75;;
29196;SDS011;62796;42.654;23.316;2022-12-31T06:44:14;58.47;;;26.50;;
29196;SDS011;62796;42.654;23.316;2022-12-31T06:46:40;53.20;;;26.23;;
29196;SDS011;62796;42.654;23.316;2022-12-31T06:49:05;59.40;;;31.10;;
29196;SDS011;62796;42.654;23.316;2022-12-31T06:51:31;59.17;;;30.95;;
29196;SDS011;62796;42.654;23.316;2022-12-31T06:53:56;57.42;;;29.20;;
29196;SDS011;62796;42.654;23.316;2022-12-31T06:56:23;63.28;;;33.40;;
29196;SDS011;62796;42.654;23.316;2022-12-31T06:58:50;78.45;;;41.88;;
29196;SDS011;62796;42.654;23.316;2022-12-31T07:07:03;48.95;;;28.02;;
29196;SDS011;62796;42.654;23.316;2022-12-31T07:09:46;49.40;;;30.75;;
29196;SDS011;62796;42.654;23.316;2022-12-31T07:17:49;38.85;;;23.23;;
29196;SDS011;62796;42.654;23.316;2022-12-31T07:20:17;38.70;;;22.98;;
29196;SDS011;62796;42.654;23.316;2022-12-31T07:22:44;45.95;;;27.77;;
29196;SDS011;62796;42.654;23.316;2022-12-31T07:25:16;46.60;;;27.33;;
29196;SDS011;62796;42.654;23.316;2022-12-31T07:30:45;47.15;;;29.17;;
29196;SDS011;62796;42.654;23.316;2022-12-31T07:35:58;45.90;;;25.75;;
29196;SDS011;62796;42.654;23.316;2022-12-31T07:41:52;40.72;;;26.55;;
29196;SDS011;62796;42.654;23.316;2022-12-31T07:46:56;57.35;;;31.73;;
29196;SDS011;62796;42.654;23.316;2022-12-31T07:49:25;44.88;;;26.95;;
29196;SDS011;62796;42.654;23.316;2022-12-31T07:51:52;42.92;;;25.75;;
29196;SDS011;62796;42.654;23.316;2022-12-31T07:54:18;44.65;;;27.83;;
29196;SDS011;62796;42.654;23.316;2022-12-31T07:56:44;42.47;;;28.58;;
29196;SDS011;62796;42.654;23.316;2022-12-31T08:05:12;56.17;;;31.52;;
29196;SDS011;62796;42.654;23.316;2022-12-31T08:12:51;42.13;;;26.50;;
29196;SDS011;62796;42.654;23.316;2022-12-31T08:15:25;39.55;;;25.45;;
29196;SDS011;62796;42.654;23.316;2022-12-31T08:17:52;37.75;;;25.20;;
29196;SDS011;62796;42.654;23.316;2022-12-31T08:20:17;39.83;;;24.95;;
29196;SDS011;62796;42.654;23.316;2022-12-31T08:28:16;31.05;;;20.05;;
29196;SDS011;62796;42.654;23.316;2022-12-31T08:31:03;36.95;;;24.33;;
29196;SDS011;62796;42.654;23.316;2022-12-31T08:36:16;27.33;;;15.25;;
29196;SDS011;62796;42.654;23.316;2022-12-31T08:41:50;24.60;;;16.20;;
29196;SDS011;62796;42.654;23.316;2022-12-31T08:44:25;26.02;;;17.50;;
29196;SDS011;62796;42.654;23.316;2022-12-31T08:49:33;26.45;;;15.63;;
29196;SDS011;62796;42.654;23.316;2022-12-31T08:51:59;23.77;;;15.18;;
29196;SDS011;62796;42.654;23.316;2022-12-31T08:54:26;23.35;;;14.02;;
29196;SDS011;62796;42.654;23.316;2022-12-31T08:59:51;22.60;;;13.93;;
29196;SDS011;62796;42.654;23.316;2022-12-31T09:07:57;21.40;;;13.27;;
29196;SDS011;62796;42.654;23.316;2022-12-31T09:15:48;18.73;;;13.82;;
29196;SDS011;62796;42.654;23.316;2022-12-31T09:18:22;27.33;;;15.07;;
29196;SDS011;62796;42.654;23.316;2022-12-31T09:20:48;23.42;;;14.13;;
29196;SDS011;62796;42.654;23.316;2022-12-31T09:23:14;20.98;;;14.30;;
29196;SDS011;62796;42.654;23.316;2022-12-31T09:25:54;27.23;;;15.02;;
29196;SDS011;62796;42.654;23.316;2022-12-31T09:28:35;23.73;;;14.52;;
29196;SDS011;62796;42.654;23.316;2022-12-31T09:33:53;20.92;;;14.32;;
29196;SDS011;62796;42.654;23.316;2022-12-31T09:36:43;19.58;;;14.23;;
29196;SDS011;62796;42.654;23.316;2022-12-31T09:39:20;21.90;;;14.43;;
29196;SDS011;62796;42.654;23.316;2022-12-31T09:44:34;19.90;;;13.27;;
29196;SDS011;62796;42.654;23.316;2022-12-31T09:47:21;18.52;;;13.38;;
29196;SDS011;62796;42.654;23.316;2022-12-31T09:50:21;18.17;;;13.82;;
29196;SDS011;62796;42.654;23.316;2022-12-31T09:55:44;18.00;;;12.77;;
29196;SDS011;62796;42.654;23.316;2022-12-31T09:58:23;18.52;;;12.00;;
29196;SDS011;62796;42.654;23.316;2022-12-31T10:01:20;18.55;;;12.23;;
29196;SDS011;62796;42.654;23.316;2022-12-31T10:04:11;20.75;;;12.55;;
29196;SDS011;62796;42.654;23.316;2022-12-31T10:40:24;31.80;;;23.35;;
29196;SDS011;62796;42.654;23.316;2022-12-31T10:59:32;35.15;;;25.00;;
29196;SDS011;62796;42.654;23.316;2022-12-31T11:05:36;34.90;;;23.80;;
29196;SDS011;62796;42.654;23.316;2022-12-31T11:21:54;32.90;;;23.52;;
29196;SDS011;62796;42.654;23.316;2022-12-31T11:35:21;32.63;;;23.85;;
29196;SDS011;62796;42.654;23.316;2022-12-31T11:37:57;30.80;;;22.67;;
29196;SDS011;62796;42.654;23.316;2022-12-31T11:49:07;38.17;;;25.40;;
29196;SDS011;62796;42.654;23.316;2022-12-31T12:00:01;34.58;;;25.83;;
29196;SDS011;62796;42.654;23.316;2022-12-31T12:02:34;35.13;;;24.63;;
29196;SDS011;62796;42.654;23.316;2022-12-31T12:05:02;31.73;;;25.02;;
29196;SDS011;62796;42.654;23.316;2022-12-31T12:07:30;30.77;;;24.27;;
29196;SDS011;62796;42.654;23.316;2022-12-31T12:09:57;31.67;;;23.33;;
29196;SDS011;62796;42.654;23.316;2022-12-31T12:12:25;37.55;;;24.13;;
29196;SDS011;62796;42.654;23.316;2022-12-31T12:15:05;32.78;;;24.60;;
29196;SDS011;62796;42.654;23.316;2022-12-31T12:17:32;45.50;;;26.65;;
29196;SDS011;62796;42.654;23.316;2022-12-31T12:20:02;36.20;;;25.92;;
29196;SDS011;62796;42.654;23.316;2022-12-31T12:22:46;40.15;;;27.48;;
29196;SDS011;62796;42.654;23.316;2022-12-31T12:25:20;47.30;;;27.40;;
29196;SDS011;62796;42.654;23.316;2022-12-31T12:27:47;38.40;;;26.23;;
29196;SDS011;62796;42.654;23.316;2022-12-31T12:32:52;41.03;;;26.77;;
29196;SDS011;62796;42.654;23.316;2022-12-31T12:35:28;43.72;;;26.98;;
29196;SDS011;62796;42.654;23.316;2022-12-31T12:38:05;41.83;;;27.10;;
29196;SDS011;62796;42.654;23.316;2022-12-31T12:40:37;39.50;;;28.20;;
29196;SDS011;62796;42.654;23.316;2022-12-31T12:43:03;39.85;;;27.92;;
29196;SDS011;62796;42.654;23.316;2022-12-31T12:45:35;40.75;;;28.70;;
29196;SDS011;62796;42.654;23.316;2022-12-31T12:48:18;40.53;;;28.45;;
29196;SDS011;62796;42.654;23.316;2022-12-31T12:50:49;43.60;;;28.20;;
29196;SDS011;62796;42.654;23.316;2022-12-31T13:02:01;41.08;;;29.40;;
29196;SDS011;62796;42.654;23.316;2022-12-31T13:15:14;36.58;;;30.00;;
29196;SDS011;62796;42.654;23.316;2022-12-31T13:20:49;46.70;;;33.60;;
29196;SDS011;62796;42.654;23.316;2022-12-31T13:26:09;41.92;;;32.60;;
29196;SDS011;62796;42.654;23.316;2022-12-31T13:28:45;44.80;;;33.03;;
29196;SDS011;62796;42.654;23.316;2022-12-31T13:31:16;51.22;;;38.13;;
29196;SDS011;62796;42.654;23.316;2022-12-31T13:33:47;46.53;;;35.25;;
29196;SDS011;62796;42.654;23.316;2022-12-31T13:36:19;47.10;;;35.63;;
29196;SDS011;62796;42.654;23.316;2022-12-31T13:46:43;39.17;;;24.73;;
29196;SDS011;62796;42.654;23.316;2022-12-31T13:49:15;40.58;;;26.38;;
29196;SDS011;62796;42.654;23.316;2022-12-31T13:51:57;44.92;;;28.23;;
29196;SDS011;62796;42.654;23.316;2022-12-31T13:54:37;51.25;;;28.38;;
29196;SDS011;62796;42.654;23.316;2022-12-31T13:57:43;46.83;;;26.95;;
29196;SDS011;62796;42.654;23.316;2022-12-31T14:00:19;55.30;;;26.77;;
29196;SDS011;62796;42.654;23.316;2022-12-31T14:18:43;50.28;;;28.33;;
29196;SDS011;62796;42.654;23.316;2022-12-31T14:26:56;61.42;;;31.38;;
29196;SDS011;62796;42.654;23.316;2022-12-31T14:35:18;66.05;;;35.05;;
29196;SDS011;62796;42.654;23.316;2022-12-31T14:51:38;65.78;;;36.83;;
29196;SDS011;62796;42.654;23.316;2022-12-31T14:54:04;69.68;;;36.80;;
29196;SDS011;62796;42.654;23.316;2022-12-31T14:56:44;71.95;;;37.22;;
29196;SDS011;62796;42.654;23.316;2022-12-31T14:59:26;69.07;;;36.67;;
29196;SDS011;62796;42.654;23.316;2022-12-31T15:01:56;62.08;;;37.30;;
29196;SDS011;62796;42.654;23.316;2022-12-31T15:04:29;67.22;;;36.30;;
29196;SDS011;62796;42.654;23.316;2022-12-31T15:07:01;61.30;;;33.88;;
29196;SDS011;62796;42.654;23.316;2022-12-31T15:12:30;60.72;;;34.97;;
29196;SDS011;62796;42.654;23.316;2022-12-31T15:23:34;103.10;;;40.03;;
29196;SDS011;62796;42.654;23.316;2022-12-31T15:26:01;97.47;;;39.85;;
29196;SDS011;62796;42.654;23.316;2022-12-31T15:28:32;134.98;;;48.30;;
29196;SDS011;62796;42.654;23.316;2022-12-31T15:33:39;122.68;;;48.47;;
29196;SDS011;62796;42.654;23.316;2022-12-31T15:36:18;154.60;;;55.35;;
29196;SDS011;62796;42.654;23.316;2022-12-31T15:38:46;122.90;;;57.03;;
29196;SDS011;62796;42.654;23.316;2022-12-31T15:41:57;146.50;;;84.10;;
29196;SDS011;62796;42.654;23.316;2022-12-31T15:44:13;80.03;;;45.25;;
29196;SDS011;62796;42.654;23.316;2022-12-31T15:46:46;57.95;;;31.33;;
29196;SDS011;62796;42.654;23.316;2022-12-31T15:49:19;43.58;;;25.50;;
29196;SDS011;62796;42.654;23.316;2022-12-31T15:51:53;42.35;;;24.05;;
29196;SDS011;62796;42.654;23.316;2022-12-31T15:54:33;34.65;;;20.95;;
29196;SDS011;62796;42.654;23.316;2022-12-31T15:57:03;45.13;;;22.58;;
29196;SDS011;62796;42.654;23.316;2022-12-31T15:59:30;60.10;;;27.52;;
29196;SDS011;62796;42.654;23.316;2022-12-31T16:01:56;68.72;;;32.22;;
29196;SDS011;62796;42.654;23.316;2022-12-31T16:04:23;48.42;;;25.60;;
29196;SDS011;62796;42.654;23.316;2022-12-31T16:06:51;59.30;;;28.02;;
29196;SDS011;62796;42.654;23.316;2022-12-31T16:09:21;48.92;;;26.13;;
29196;SDS011;62796;42.654;23.316;2022-12-31T16:11:49;48.58;;;27.15;;
29196;SDS011;62796;42.654;23.316;2022-12-31T16:14:18;37.75;;;22.95;;
29196;SDS011;62796;42.654;23.316;2022-12-31T16:17:06;36.20;;;20.70;;
29196;SDS011;62796;42.654;23.316;2022-12-31T16:19:45;58.08;;;29.85;;
29196;SDS011;62796;42.654;23.316;2022-12-31T16:22:13;63.15;;;30.33;;
29196;SDS011;62796;42.654;23.316;2022-12-31T16:24:40;80.22;;;34.40;;
29196;SDS011;62796;42.654;23.316;2022-12-31T16:27:07;85.15;;;38.25;;
29196;SDS011;62796;42.654;23.316;2022-12-31T16:29:40;88.32;;;38.60;;
29196;SDS011;62796;42.654;23.316;2022-12-31T16:32:13;95.82;;;44.70;;
29196;SDS011;62796;42.654;23.316;2022-12-31T16:34:40;113.30;;;46.53;;
29196;SDS011;62796;42.654;23.316;2022-12-31T16:37:12;92.85;;;45.42;;
29196;SDS011;62796;42.654;23.316;2022-12-31T16:42:20;93.10;;;44.97;;
29196;SDS011;62796;42.654;23.316;2022-12-31T16:44:48;89.25;;;44.08;;
29196;SDS011;62796;42.654;23.316;2022-12-31T16:47:19;59.90;;;35.03;;
29196;SDS011;62796;42.654;23.316;2022-12-31T16:49:48;44.95;;;19.75;;
29196;SDS011;62796;42.654;23.316;2022-12-31T16:52:24;48.38;;;23.25;;
29196;SDS011;62796;42.654;23.316;2022-12-31T16:54:56;57.03;;;30.50;;
29196;SDS011;62796;42.654;23.316;2022-12-31T16:57:23;49.78;;;29.35;;
29196;SDS011;62796;42.654;23.316;2022-12-31T16:59:53;61.70;;;35.47;;
29196;SDS011;62796;42.654;23.316;2022-12-31T17:02:24;60.35;;;33.60;;
29196;SDS011;62796;42.654;23.316;2022-12-31T17:04:53;66.25;;;32.42;;
29196;SDS011;62796;42.654;23.316;2022-12-31T17:10:00;69.10;;;38.38;;
29196;SDS011;62796;42.654;23.316;2022-12-31T17:12:40;70.68;;;33.80;;
29196;SDS011;62796;42.654;23.316;2022-12-31T17:15:15;69.75;;;36.72;;
29196;SDS011;62796;42.654;23.316;2022-12-31T17:17:42;57.13;;;31.05;;
29196;SDS011;62796;42.654;23.316;2022-12-31T17:20:16;57.83;;;31.25;;
29196;SDS011;62796;42.654;23.316;2022-12-31T17:22:46;60.42;;;31.13;;
29196;SDS011;62796;42.654;23.316;2022-12-31T17:25:23;65.70;;;35.67;;
29196;SDS011;62796;42.654;23.316;2022-12-31T17:32:59;67.45;;;34.78;;
29196;SDS011;62796;42.654;23.316;2022-12-31T17:35:43;61.72;;;32.10;;
29196;SDS011;62796;42.654;23.316;2022-12-31T17:40:51;82.30;;;50.67;;
29196;SDS011;62796;42.654;23.316;2022-12-31T17:43:19;132.65;;;81.85;;
29196;SDS011;62796;42.654;23.316;2022-12-31T17:45:46;205.65;;;149.35;;
29196;SDS011;62796;42.654;23.316;2022-12-31T17:48:14;101.95;;;59.20;;
29196;SDS011;62796;42.654;23.316;2022-12-31T17:50:51;89.00;;;45.67;;
29196;SDS011;62796;42.654;23.316;2022-12-31T17:53:18;203.10;;;62.90;;
29196;SDS011;62796;42.654;23.316;2022-12-31T17:55:44;854.25;;;220.15;;
29196;SDS011;62796;42.654;23.316;2022-12-31T17:58:57;267.50;;;73.70;;
29196;SDS011;62796;42.654;23.316;2022-12-31T18:01:07;207.55;;;60.20;;
29196;SDS011;62796;42.654;23.316;2022-12-31T18:03:33;173.00;;;59.05;;
29196;SDS011;62796;42.654;23.316;2022-12-31T18:05:58;1096.80;;;313.25;;
29196;SDS011;62796;42.654;23.316;2022-12-31T18:08:24;1741.18;;;515.13;;
29196;SDS011;62796;42.654;23.316;2022-12-31T18:10:49;1999.90;;;662.70;;
29196;SDS011;62796;42.654;23.316;2022-12-31T18:13:20;1999.90;;;636.10;;
29196;SDS011;62796;42.654;23.316;2022-12-31T18:15:48;1999.90;;;553.53;;
29196;SDS011;62796;42.654;23.316;2022-12-31T18:20:47;1999.90;;;994.38;;
29196;SDS011;62796;42.654;23.316;2022-12-31T18:23:27;1999.90;;;999.90;;
29196;SDS011;62796;42.654;23.316;2022-12-31T18:25:55;1999.90;;;999.90;;
29196;SDS011;62796;42.654;23.316;2022-12-31T18:28:21;1999.90;;;943.45;;
29196;SDS011;62796;42.654;23.316;2022-12-31T18:30:46;1999.90;;;999.90;;
29196;SDS011;62796;42.654;23.316;2022-12-31T18:33:12;1999.90;;;999.90;;
29196;SDS011;62796;42.654;23.316;2022-12-31T18:35:43;1999.90;;;999.90;;
29196;SDS011;62796;42.654;23.316;2022-12-31T18:38:12;1999.90;;;955.53;;
29196;SDS011;62796;42.654;23.316;2022-12-31T18:40:39;1419.53;;;743.13;;
29196;SDS011;62796;42.654;23.316;2022-12-31T18:43:15;259.17;;;143.93;;
29196;SDS011;62796;42.654;23.316;2022-12-31T18:45:42;254.55;;;151.40;;
29196;SDS011;62796;42.654;23.316;2022-12-31T18:48:08;74.15;;;45.72;;
29196;SDS011;62796;42.654;23.316;2022-12-31T18:50:34;74.57;;;40.72;;
29196;SDS011;62796;42.654;23.316;2022-12-31T18:52:59;100.90;;;50.00;;
29196;SDS011;62796;42.654;23.316;2022-12-31T18:55:26;142.75;;;79.45;;
29196;SDS011;62796;42.654;23.316;2022-12-31T18:57:57;124.15;;;71.63;;
29196;SDS011;62796;42.654;23.316;2022-12-31T19:00:23;133.13;;;74.80;;
29196;SDS011;62796;42.654;23.316;2022-12-31T19:02:48;119.00;;;66.90;;
29196;SDS011;62796;42.654;23.316;2022-12-31T19:05:35;94.95;;;55.72;;
29196;SDS011;62796;42.654;23.316;2022-12-31T19:08:00;98.25;;;55.55;;
29196;SDS011;62796;42.654;23.316;2022-12-31T19:10:26;84.38;;;46.80;;
29196;SDS011;62796;42.654;23.316;2022-12-31T19:12:52;111.22;;;63.97;;
29196;SDS011;62796;42.654;23.316;2022-12-31T19:17:54;85.45;;;50.72;;
29196;SDS011;62796;42.654;23.316;2022-12-31T19:20:22;113.43;;;57.10;;
29196;SDS011;62796;42.654;23.316;2022-12-31T19:22:48;116.32;;;65.35;;
29196;SDS011;62796;42.654;23.316;2022-12-31T19:25:34;135.77;;;68.82;;
29196;SDS011;62796;42.654;23.316;2022-12-31T19:28:00;573.25;;;240.82;;
29196;SDS011;62796;42.654;23.316;2022-12-31T19:30:30;553.55;;;226.10;;